createdAt,value
2023-01-18T00:04:15.347Z,36.45
2023-01-18T00:11:19.135Z,29.15
2023-01-18T00:18:23.025Z,41.70
2023-01-18T00:25:25.287Z,33.92
2023-01-18T00:32:27.251Z,35.65
2023-01-18T00:39:29.372Z,35.20
2023-01-18T00:46:31.424Z,36.47
2023-01-18T00:53:33.613Z,41.97
2023-01-18T01:00:35.668Z,47.55
2023-01-18T01:07:37.674Z,43.05
2023-01-18T01:15:01.951Z,48.55
2023-01-18T01:22:22.628Z,47.90
2023-01-18T01:29:24.769Z,54.95
2023-01-18T01:36:28.767Z,44.25
2023-01-18T01:43:48.785Z,53.20
2023-01-18T01:50:50.774Z,60.95
2023-01-18T01:58:00.900Z,54.88
2023-01-18T02:05:05.081Z,66.43
2023-01-18T02:12:07.187Z,51.03
2023-01-18T02:19:32.167Z,55.25
2023-01-18T02:26:58.953Z,60.40
2023-01-18T02:34:14.549Z,52.92
2023-01-18T02:41:18.647Z,67.03
2023-01-18T02:48:24.850Z,63.58
2023-01-18T02:55:29.864Z,52.15
2023-01-18T03:02:32.009Z,65.97
2023-01-18T03:09:34.316Z,66.82
2023-01-18T03:17:08.632Z,61.75
2023-01-18T03:24:11.217Z,58.75
2023-01-18T03:31:35.392Z,70.07
2023-01-18T03:38:40.076Z,63.78
2023-01-18T03:45:46.970Z,62.90
2023-01-18T03:52:51.396Z,73.40
2023-01-18T03:59:53.399Z,66.93
2023-01-18T04:06:55.383Z,66.95
2023-01-18T04:13:57.335Z,64.13
2023-01-18T04:20:59.299Z,54.15
2023-01-18T04:28:01.237Z,50.10
2023-01-18T04:35:03.256Z,53.20
2023-01-18T04:42:05.545Z,45.97
2023-01-18T04:49:12.411Z,49.53
2023-01-18T04:56:14.374Z,49.45
2023-01-18T05:03:16.485Z,57.58
2023-01-18T05:10:18.430Z,53.35
2023-01-18T05:17:20.383Z,53.53
2023-01-18T05:24:22.427Z,54.10
2023-01-18T05:31:24.800Z,43.58
2023-01-18T05:38:27.091Z,42.72
2023-01-18T05:45:29.163Z,51.53
2023-01-18T05:52:31.257Z,40.50
2023-01-18T05:59:33.265Z,36.28
2023-01-18T06:06:35.509Z,42.20
2023-01-18T06:13:37.542Z,37.22
2023-01-18T06:20:39.698Z,26.10
2023-01-18T06:27:41.827Z,37.25
2023-01-18T06:34:43.751Z,30.52
2023-01-18T06:41:45.751Z,27.95
2023-01-18T06:48:48.072Z,28.17
2023-01-18T06:55:58.075Z,27.13
2023-01-18T07:03:01.304Z,27.83
2023-01-18T07:10:04.016Z,27.92
2023-01-18T07:17:06.059Z,22.25
2023-01-18T07:24:08.183Z,22.88
2023-01-18T07:31:11.052Z,20.40
2023-01-18T07:38:13.240Z,21.92
2023-01-18T07:45:15.292Z,23.70
2023-01-18T07:52:17.308Z,21.63
2023-01-18T07:59:19.215Z,18.05
2023-01-18T08:06:25.676Z,13.45
2023-01-18T08:13:28.101Z,10.52
2023-01-18T08:20:30.712Z,14.50
2023-01-18T08:27:32.643Z,10.63
2023-01-18T08:34:34.550Z,15.00
2023-01-18T08:41:37.497Z,8.52
2023-01-18T08:48:39.469Z,8.55
2023-01-18T08:55:41.380Z,8.25
2023-01-18T09:02:43.669Z,8.52
2023-01-18T09:09:45.751Z,7.25
2023-01-18T09:16:47.977Z,8.50
2023-01-18T09:23:51.131Z,6.15
2023-01-18T09:30:54.190Z,7.18
2023-01-18T09:37:56.269Z,8.90
2023-01-18T09:44:59.776Z,11.30
2023-01-18T09:52:01.669Z,7.82
2023-01-18T09:59:25.244Z,5.10
2023-01-18T10:06:43.335Z,9.43
2023-01-18T10:13:53.741Z,9.48
2023-01-18T10:21:01.993Z,8.05
2023-01-18T10:28:26.403Z,8.10
2023-01-18T10:35:30.221Z,7.57
2023-01-18T10:42:52.299Z,8.43
2023-01-18T10:49:59.531Z,7.20
2023-01-18T10:57:03.648Z,10.50
2023-01-18T11:04:29.029Z,5.55
2023-01-18T11:11:51.234Z,10.70
2023-01-18T11:19:02.423Z,7.72
2023-01-18T11:26:15.318Z,6.93
2023-01-18T11:33:20.014Z,7.05
2023-01-18T11:40:35.851Z,7.55
2023-01-18T11:48:12.058Z,10.38
2023-01-18T11:55:25.898Z,6.82
2023-01-18T12:02:56.789Z,8.93
2023-01-18T12:10:01.616Z,9.43
2023-01-18T12:17:13.493Z,10.18
2023-01-18T12:24:24.516Z,10.15
2023-01-18T12:31:38.672Z,10.02
2023-01-18T12:39:00.729Z,7.57
2023-01-18T12:46:08.030Z,10.35
2023-01-18T12:53:16.254Z,11.43
2023-01-18T13:00:27.352Z,11.00
2023-01-18T13:07:42.813Z,10.07
2023-01-18T13:14:49.947Z,9.65
2023-01-18T13:22:00.566Z,12.05
2023-01-18T13:29:16.969Z,11.70
2023-01-18T13:36:21.434Z,7.22
2023-01-18T13:43:57.035Z,6.63
2023-01-18T13:50:59.327Z,7.10
2023-01-18T13:58:02.263Z,6.78
2023-01-18T14:05:27.131Z,5.95
2023-01-18T14:12:50.082Z,11.73
2023-01-18T14:20:22.092Z,13.93
2023-01-18T14:27:27.971Z,18.80
2023-01-18T14:34:30.289Z,15.40
2023-01-18T14:41:32.339Z,16.17
2023-01-18T14:48:40.587Z,15.50
2023-01-18T14:55:43.013Z,15.07
2023-01-18T15:02:46.535Z,16.98
2023-01-18T15:09:48.654Z,22.42
2023-01-18T15:16:53.361Z,17.33
2023-01-18T15:24:08.535Z,15.98
2023-01-18T15:31:16.367Z,18.38
2023-01-18T15:38:18.419Z,15.65
2023-01-18T15:45:22.031Z,17.33
2023-01-18T15:52:44.907Z,23.15
2023-01-18T15:59:49.215Z,22.55
2023-01-18T16:06:51.649Z,25.27
2023-01-18T16:13:59.653Z,22.75
2023-01-18T16:21:02.203Z,24.08
2023-01-18T16:28:05.263Z,31.70
2023-01-18T16:35:15.863Z,45.70
2023-01-18T16:42:21.767Z,181.20
2023-01-18T16:49:29.209Z,137.43
2023-01-18T16:56:31.918Z,36.10
2023-01-18T17:03:36.557Z,26.13
2023-01-18T17:10:40.943Z,13.95
2023-01-18T17:17:44.043Z,43.72
2023-01-18T17:24:46.793Z,24.17
2023-01-18T17:31:52.685Z,13.27
2023-01-18T17:38:55.770Z,18.60
2023-01-18T17:46:01.458Z,7.85
2023-01-18T17:53:04.776Z,13.23
2023-01-18T18:00:09.758Z,26.85
2023-01-18T18:07:12.466Z,30.45
2023-01-18T18:14:15.774Z,5.82
2023-01-18T18:21:20.512Z,7.97
2023-01-18T18:28:25.218Z,15.55
2023-01-18T18:35:28.766Z,8.85
2023-01-18T18:42:31.806Z,7.25
2023-01-18T18:49:34.558Z,8.25
2023-01-18T18:56:36.786Z,12.32
2023-01-18T19:03:39.328Z,23.30
2023-01-18T19:10:44.580Z,4.85
2023-01-18T19:17:50.454Z,22.60
2023-01-18T19:24:56.022Z,21.13
2023-01-18T19:31:58.975Z,37.97
2023-01-18T19:39:03.483Z,28.20
2023-01-18T19:46:09.236Z,14.35
2023-01-18T19:53:12.047Z,7.47
2023-01-18T20:00:18.155Z,9.98
2023-01-18T20:07:22.673Z,14.38
2023-01-18T20:14:36.628Z,7.05
2023-01-18T20:21:44.335Z,11.13
2023-01-18T20:28:51.680Z,3.88
2023-01-18T20:35:57.113Z,5.50
2023-01-18T20:43:00.302Z,7.80
2023-01-18T20:50:06.206Z,6.40
2023-01-18T20:57:09.759Z,5.75
2023-01-18T21:04:12.566Z,8.85
2023-01-18T21:11:16.548Z,12.57
2023-01-18T21:18:18.724Z,14.77
2023-01-18T21:25:20.947Z,2.95
2023-01-18T21:32:24.396Z,4.65
2023-01-18T21:39:26.527Z,11.02
2023-01-18T21:46:28.794Z,4.80
2023-01-18T21:53:49.468Z,23.65
2023-01-18T22:00:51.527Z,15.70
2023-01-18T22:07:53.484Z,11.00
2023-01-18T22:14:57.551Z,7.88
2023-01-18T22:21:59.917Z,10.23
2023-01-18T22:29:02.202Z,8.73
2023-01-18T22:36:04.806Z,8.52
2023-01-18T22:43:06.755Z,19.13
2023-01-18T22:50:09.634Z,12.50
2023-01-18T22:57:11.647Z,12.57
2023-01-18T23:04:13.685Z,11.10
2023-01-18T23:11:22.133Z,16.23
2023-01-18T23:18:24.276Z,24.98
2023-01-18T23:25:26.258Z,15.10
2023-01-18T23:32:30.767Z,17.08
2023-01-18T23:39:51.047Z,17.90
2023-01-18T23:47:11.623Z,12.15
2023-01-18T23:54:16.999Z,11.40
